Time;durP1;ratioP1;P1;durP2;ratioP2;P2;SDS_P1;SDS_P2;PMS_P1;PMS_P2;Temp;Humidity;BMP_temperature;BMP_pressure;BME280_temperature;BME280_humidity;BME280_pressure;Samples;Min_cycle;Max_cycle;Signal;HPM_P1;HPM_P2
2023/04/25 00:00:32;;;;;;;0.22;0.22;;;;;;;-147.53;100.00;57128.34;10122078;29;21270;-85
2023/04/25 00:05:34;;;;;;;2.92;0.63;;;;;;;-147.53;100.00;57128.34;10118700;29;20104;-85
2023/04/25 00:10:37;;;;;;;1.85;1.05;;;;;;;-147.53;100.00;57128.34;10091258;29;20045;-85
2023/04/25 00:15:41;;;;;;;2.92;1.23;;;;;;;-147.53;100.00;57128.34;10080732;29;20064;-85
2023/04/25 00:20:46;;;;;;;6.25;1.10;;;;;;;-147.53;100.00;57128.34;10116297;29;20132;-85
2023/04/25 00:25:49;;;;;;;3.80;1.05;;;;;;;-147.53;100.00;57128.34;10076144;29;20137;-85
2023/04/25 00:30:51;;;;;;;3.50;0.52;;;;;;;-147.53;100.00;57128.34;10105341;29;20052;-85
2023/04/25 00:35:53;;;;;;;0.50;0.50;;;;;;;-147.53;100.00;57128.34;10111684;29;20537;-84
2023/04/25 00:41:08;;;;;;;2.78;1.75;;;;;;;-147.53;100.00;57128.34;10069550;29;20290;-85
2023/04/25 00:46:40;;;;;;;1.45;0.80;;;;;;;-147.53;100.00;57128.34;10113668;29;20056;-84
2023/04/25 00:51:44;;;;;;;2.25;0.93;;;;;;;-147.53;100.00;57128.34;10088780;29;20055;-85
2023/04/25 00:56:46;;;;;;;1.73;0.93;;;;;;;-147.53;100.00;57128.34;10107377;29;20131;-83
2023/04/25 01:01:48;;;;;;;3.20;1.45;;;;;;;-147.53;100.00;57128.34;10105150;29;20536;-84
2023/04/25 01:06:50;;;;;;;3.38;1.08;;;;;;;-147.53;100.00;57128.34;10101425;29;20061;-84
2023/04/25 01:11:51;;;;;;;6.00;0.52;;;;;;;-147.53;100.00;57128.34;10087251;29;20060;-84
2023/04/25 01:16:54;;;;;;;2.90;0.98;;;;;;;-147.53;100.00;57128.34;10078334;29;20061;-84
2023/04/25 01:21:55;;;;;;;1.00;0.63;;;;;;;-147.53;100.00;57128.34;10082205;29;20060;-83
2023/04/25 01:27:00;;;;;;;2.90;0.90;;;;;;;-147.53;100.00;57128.34;10094379;29;20057;-83
2023/04/25 01:32:02;;;;;;;10.13;0.50;;;;;;;-147.53;100.00;57128.34;10089970;29;20060;-83
2023/04/25 01:37:29;;;;;;;4.32;0.93;;;;;;;-147.53;100.00;57128.34;10106814;29;20469;-83
2023/04/25 01:42:39;;;;;;;4.00;0.73;;;;;;;-147.53;100.00;57128.34;10099279;29;20067;-83
2023/04/25 01:47:51;;;;;;;;;;;;;;;-147.53;100.00;57128.34;10089899;29;20048;-83
2023/04/25 01:53:01;;;;;;;1.48;0.85;;;;;;;-147.53;100.00;57128.34;10088597;29;20456;-83
2023/04/25 01:58:12;;;;;;;1.10;0.63;;;;;;;-147.53;100.00;57128.34;10087910;29;20458;-83
2023/04/25 02:03:43;;;;;;;;;;;;;;;-147.53;100.00;57128.34;10097400;29;20060;-83
2023/04/25 02:08:55;;;;;;;3.20;1.83;;;;;;;-147.53;100.00;57128.34;10111367;29;19930;-83
2023/04/25 02:14:03;;;;;;;2.28;0.93;;;;;;;-147.53;100.00;57128.34;10103504;29;20402;-83
2023/04/25 02:19:17;;;;;;;1.58;0.88;;;;;;;-147.53;100.00;57128.34;10081346;29;20072;-84
2023/04/25 02:24:21;;;;;;;1.25;0.85;;;;;;;-147.53;100.00;57128.34;10086916;29;20088;-83
2023/04/25 02:29:32;;;;;;;2.30;0.60;;;;;;;-147.53;100.00;57128.34;10072188;29;20144;-83
2023/04/25 02:34:41;;;;;;;2.00;0.98;;;;;;;-147.53;100.00;57128.34;10073399;29;20511;-83
2023/04/25 02:39:50;;;;;;;3.33;1.02;;;;;;;-147.53;100.00;57128.34;10084833;29;20403;-83
2023/04/25 02:45:10;;;;;;;2.30;1.75;;;;;;;-147.53;100.00;57128.34;10085474;29;20159;-82
2023/04/25 02:50:18;;;;;;;6.45;1.35;;;;;;;-147.53;100.00;57128.34;10111725;29;20064;-84
2023/04/25 02:55:28;;;;;;;1.70;0.80;;;;;;;-147.53;100.00;57128.34;10065450;29;20505;-83
2023/04/25 03:00:33;;;;;;;1.52;0.70;;;;;;;-147.53;100.00;57128.34;10079842;29;20065;-83
2023/04/25 03:05:37;;;;;;;1.65;0.70;;;;;;;-147.53;100.00;57128.34;10075094;29;20080;-83
2023/04/25 03:10:46;;;;;;;0.98;0.88;;;;;;;-147.53;100.00;57128.34;10088443;29;20064;-83
2023/04/25 03:15:53;;;;;;;1.25;0.60;;;;;;;-147.53;100.00;57128.34;10127931;29;20068;-83
2023/04/25 03:21:00;;;;;;;0.95;0.63;;;;;;;-147.53;100.00;57128.34;10087916;29;20434;-83
2023/04/25 03:26:05;;;;;;;1.25;0.70;;;;;;;-147.53;100.00;57128.34;10102487;29;20063;-83
2023/04/25 03:31:14;;;;;;;1.90;1.35;;;;;;;-147.53;100.00;57128.34;10103192;29;20076;-83
2023/04/25 03:36:23;;;;;;;1.55;1.23;;;;;;;-147.53;100.00;57128.34;10103065;29;20061;-83
2023/04/25 03:41:25;;;;;;;1.65;1.02;;;;;;;-147.53;100.00;57128.34;10089087;29;20060;-83
2023/04/25 03:46:35;;;;;;;;;;;;;;;-147.53;100.00;57128.34;10102266;29;20057;-83
2023/04/25 03:51:39;;;;;;;0.80;0.70;;;;;;;-147.53;100.00;57128.34;10086866;29;20546;-83
2023/04/25 03:56:49;;;;;;;1.55;0.75;;;;;;;-147.53;100.00;57128.34;10094955;29;20075;-83
2023/04/25 04:01:57;;;;;;;3.60;1.70;;;;;;;-147.53;100.00;57128.34;10083518;29;20129;-83
2023/04/25 04:07:02;;;;;;;0.20;0.20;;;;;;;-147.53;100.00;57128.34;10096462;29;20312;-82
2023/04/25 04:12:09;;;;;;;4.45;1.20;;;;;;;-147.53;100.00;57128.34;10133251;29;20116;-82
2023/04/25 04:17:18;;;;;;;2.78;0.95;;;;;;;-147.53;100.00;57128.34;10101613;29;20542;-83
2023/04/25 04:22:24;;;;;;;0.20;0.20;;;;;;;-147.53;100.00;57128.34;10111265;29;20581;-83
2023/04/25 04:27:32;;;;;;;0.93;0.60;;;;;;;-147.53;100.00;57128.34;10081473;29;20143;-82
2023/04/25 04:32:56;;;;;;;0.68;0.50;;;;;;;-147.53;100.00;57128.34;10092383;29;20052;-83
2023/04/25 04:37:58;;;;;;;0.52;0.30;;;;;;;-147.53;100.00;57128.34;10118908;29;20047;-83
2023/04/25 04:43:11;;;;;;;0.30;0.20;;;;;;;-147.53;100.00;57128.34;10110469;29;20056;-82
2023/04/25 04:48:40;;;;;;;0.63;0.30;;;;;;;-147.53;100.00;57128.34;10127947;29;20247;-82
2023/04/25 04:54:02;;;;;;;9.77;1.70;;;;;;;-147.53;100.00;57128.34;10118483;29;20426;-82
2023/04/25 04:59:30;;;;;;;0.80;0.68;;;;;;;-147.53;100.00;57128.34;10102766;29;20053;-83
2023/04/25 05:04:52;;;;;;;3.45;1.48;;;;;;;-147.53;100.00;57128.34;10101340;29;20053;-84
2023/04/25 05:10:23;;;;;;;0.30;0.22;;;;;;;-147.53;100.00;57128.34;10087539;29;20060;-84
2023/04/25 05:15:50;;;;;;;3.83;0.80;;;;;;;-147.53;100.00;57128.34;10096629;29;20049;-83
2023/04/25 05:21:02;;;;;;;1.35;0.65;;;;;;;-147.53;100.00;57128.34;10119219;29;20041;-84
2023/04/25 05:26:30;;;;;;;0.55;0.55;;;;;;;-147.53;100.00;57128.34;10104421;29;20092;-84
2023/04/25 05:31:59;;;;;;;3.05;0.82;;;;;;;-147.53;100.00;57128.34;10075675;29;20073;-84
2023/04/25 05:37:07;;;;;;;0.63;0.52;;;;;;;-147.53;100.00;57128.34;10103224;29;20058;-84
2023/04/25 05:42:24;;;;;;;0.68;0.40;;;;;;;-147.53;100.00;57128.34;10088902;29;20056;-84
2023/04/25 05:47:55;;;;;;;0.10;0.10;;;;;;;-147.53;100.00;57128.34;10089017;29;20080;-84
2023/04/25 05:53:23;;;;;;;0.30;0.30;;;;;;;-147.53;100.00;57128.34;10114039;29;20087;-84
2023/04/25 05:58:33;;;;;;;6.70;0.82;;;;;;;-147.53;100.00;57128.34;10101235;29;20148;-84
2023/04/25 06:03:42;;;;;;;2.75;0.70;;;;;;;-147.53;100.00;57128.34;10098307;29;20052;-83
2023/04/25 06:08:45;;;;;;;3.63;0.28;;;;;;;-147.53;100.00;57128.34;10076376;29;20182;-83
2023/04/25 06:13:50;;;;;;;0.47;0.35;;;;;;;-147.53;100.00;57128.34;10084734;29;20838;-83
2023/04/25 06:18:52;;;;;;;1.67;1.20;;;;;;;-147.53;100.00;57128.34;10110573;29;20116;-83
2023/04/25 06:24:01;;;;;;;0.75;0.50;;;;;;;-147.53;100.00;57128.34;10091477;29;20055;-83
2023/04/25 06:29:13;;;;;;;1.70;0.93;;;;;;;-147.53;100.00;57128.34;10093581;29;20057;-83
2023/04/25 06:34:34;;;;;;;1.35;0.60;;;;;;;-147.53;100.00;57128.34;10069770;29;20051;-83
2023/04/25 06:40:14;;;;;;;2.13;0.50;;;;;;;-147.53;100.00;57128.34;10117448;29;20783;-83
2023/04/25 06:45:21;;;;;;;4.32;0.77;;;;;;;-147.53;100.00;57128.34;10077077;29;20084;-86
2023/04/25 06:50:28;;;;;;;1.58;0.45;;;;;;;-147.53;100.00;57128.34;10080620;29;20064;-85
2023/04/25 06:55:34;;;;;;;6.85;1.45;;;;;;;-147.53;100.00;57128.34;10081561;29;20442;-86
2023/04/25 07:00:48;;;;;;;2.08;0.35;;;;;;;-147.53;100.00;57128.34;10088189;29;20045;-85
2023/04/25 07:05:50;;;;;;;3.25;0.93;;;;;;;-147.53;100.00;57128.34;10084464;29;20168;-85
2023/04/25 07:10:52;;;;;;;0.82;0.47;;;;;;;-147.53;100.00;57128.34;10076299;29;20144;-85
2023/04/25 07:15:54;;;;;;;5.78;0.35;;;;;;;-147.53;100.00;57128.34;10088027;29;20109;-84
2023/04/25 07:20:58;;;;;;;1.52;0.50;;;;;;;-147.53;100.00;57128.34;10107695;29;20116;-84
2023/04/25 07:25:59;;;;;;;9.27;0.85;;;;;;;-147.53;100.00;57128.34;10111279;29;20148;-84
2023/04/25 07:31:03;;;;;;;2.78;0.52;;;;;;;-147.53;100.00;57128.34;10097704;29;20093;-84
2023/04/25 07:36:06;;;;;;;2.05;0.65;;;;;;;-147.53;100.00;57128.34;10110433;29;20151;-83
2023/04/25 07:41:08;;;;;;;3.45;0.50;;;;;;;-147.53;100.00;57128.34;10087433;29;20057;-83
2023/04/25 07:46:10;;;;;;;0.40;0.30;;;;;;;-147.53;100.00;57128.34;10109873;29;20057;-83
2023/04/25 07:51:12;;;;;;;4.93;0.60;;;;;;;-147.53;100.00;57128.34;10095834;29;20128;-82
2023/04/25 07:56:14;;;;;;;1.45;0.65;;;;;;;-147.53;100.00;57128.34;10091239;29;20292;-83
2023/04/25 08:01:21;;;;;;;0.82;0.63;;;;;;;-147.53;100.00;57128.34;10093745;29;20059;-82
2023/04/25 08:06:28;;;;;;;5.80;0.50;;;;;;;-147.53;100.00;57128.34;10102764;29;20051;-83
2023/04/25 08:11:39;;;;;;;1.52;0.80;;;;;;;-147.53;100.00;57128.34;10114282;29;20152;-83
2023/04/25 08:16:43;;;;;;;1.67;0.45;;;;;;;-147.53;100.00;57128.34;10115745;29;20053;-82
2023/04/25 08:21:45;;;;;;;4.30;1.17;;;;;;;-147.53;100.00;57128.34;10095965;29;20041;-82
2023/04/25 08:26:51;;;;;;;0.13;0.13;;;;;;;-147.53;100.00;57128.34;10104445;29;20057;-81
2023/04/25 08:31:55;;;;;;;1.33;0.50;;;;;;;-147.53;100.00;57128.34;10125734;29;20317;-81
2023/04/25 08:36:57;;;;;;;1.75;0.30;;;;;;;-147.53;100.00;57128.34;10103728;29;20056;-81
2023/04/25 08:42:12;;;;;;;0.52;0.52;;;;;;;-147.53;100.00;57128.34;10106910;29;20071;-82
2023/04/25 08:47:13;;;;;;;0.38;0.30;;;;;;;-147.53;100.00;57128.34;10113728;29;20552;-82
2023/04/25 08:52:23;;;;;;;1.48;0.45;;;;;;;-147.53;100.00;57128.34;10108870;29;20055;-83
2023/04/25 08:57:28;;;;;;;6.70;0.35;;;;;;;-147.53;100.00;57128.34;10115744;29;20049;-81
2023/04/25 09:02:31;;;;;;;0.25;0.25;;;;;;;-147.53;100.00;57128.34;10096401;29;20108;-82
2023/04/25 09:07:33;;;;;;;1.35;0.57;;;;;;;-147.53;100.00;57128.34;10098614;29;20057;-83
2023/04/25 09:12:35;;;;;;;1.23;0.50;;;;;;;-147.53;100.00;57128.34;10092143;29;20044;-81
2023/04/25 09:17:40;;;;;;;1.77;0.90;;;;;;;-147.53;100.00;57128.34;10091985;29;20080;-81
2023/04/25 09:22:42;;;;;;;0.25;0.22;;;;;;;-147.53;100.00;57128.34;10084105;29;20469;-82
2023/04/25 09:27:52;;;;;;;0.15;0.15;;;;;;;-147.53;100.00;57128.34;10104423;29;20451;-82
2023/04/25 09:33:07;;;;;;;0.20;0.15;;;;;;;-147.53;100.00;57128.34;10091414;29;20104;-81
2023/04/25 09:38:12;;;;;;;1.08;0.47;;;;;;;-147.53;100.00;57128.34;10087803;29;20100;-81
2023/04/25 09:43:25;;;;;;;2.33;0.47;;;;;;;-147.53;100.00;57128.34;10110542;29;20609;-82
2023/04/25 09:48:29;;;;;;;0.25;0.20;;;;;;;-147.53;100.00;57128.34;10092814;29;20045;-85
2023/04/25 09:53:38;;;;;;;1.30;0.40;;;;;;;-147.53;100.00;57128.34;10096757;29;20388;-83
2023/04/25 10:17:40;;;;;;;0.52;0.28;;;;;;;-147.53;100.00;57128.34;9896413;29;20058;-85
2023/04/25 10:23:25;;;;;;;1.95;0.50;;;;;;;-147.53;100.00;57128.34;9928206;29;20062;-83
2023/04/25 10:29:49;;;;;;;;;;;;;;;;;;;;;
2023/04/25 10:36:14;;;;;;;2.47;0.45;;;;;;;-147.53;100.00;57128.34;9904697;29;20272;-83
2023/04/25 10:41:28;;;;;;;;;;;;;;;-147.53;100.00;57128.34;9877244;29;20073;-83
2023/04/25 10:48:14;;;;;;;4.63;0.70;;;;;;;-147.53;100.00;57128.34;10004288;29;20023;-83
2023/04/25 10:53:38;;;;;;;1.45;0.30;;;;;;;-147.53;100.00;57128.34;10027099;29;20123;-83
2023/04/25 10:58:44;;;;;;;1.13;0.40;;;;;;;-147.53;100.00;57128.34;10007995;29;20078;-83
2023/04/25 11:03:50;;;;;;;3.05;0.50;;;;;;;-147.53;100.00;57128.34;10060220;29;20475;-82
2023/04/25 11:08:52;;;;;;;2.35;0.57;;;;;;;-147.53;100.00;57128.34;10045470;29;20060;-83
2023/04/25 11:13:54;;;;;;;0.98;0.32;;;;;;;-147.53;100.00;57128.34;10032260;29;20085;-82
2023/04/25 11:18:57;;;;;;;2.75;0.82;;;;;;;-147.53;100.00;57128.34;10035093;29;20056;-81
2023/04/25 11:24:00;;;;;;;5.85;0.55;;;;;;;-147.53;100.00;57128.34;10051283;29;20144;-81
2023/04/25 11:29:02;;;;;;;0.13;0.13;;;;;;;-147.53;100.00;57128.34;10051532;29;20060;-81
2023/04/25 11:34:04;;;;;;;1.35;0.73;;;;;;;-147.53;100.00;57128.34;10056382;29;20060;-81
2023/04/25 11:39:06;;;;;;;1.60;0.60;;;;;;;-147.53;100.00;57128.34;10060901;29;20102;-81
2023/04/25 11:44:08;;;;;;;0.85;0.73;;;;;;;-147.53;100.00;57128.34;10059413;29;20050;-81
2023/04/25 11:49:09;;;;;;;0.85;0.30;;;;;;;-147.53;100.00;57128.34;10042405;29;20072;-80
2023/04/25 11:54:12;;;;;;;0.73;0.43;;;;;;;-147.53;100.00;57128.34;10060372;29;20049;-80
2023/04/25 11:59:14;;;;;;;4.28;0.90;;;;;;;-147.53;100.00;57128.34;10044854;29;20054;-80
2023/04/25 12:04:16;;;;;;;4.68;0.20;;;;;;;-147.53;100.00;57128.34;10045881;29;20134;-81
2023/04/25 12:09:23;;;;;;;0.20;0.20;;;;;;;-147.53;100.00;57128.34;10063979;29;20120;-81
2023/04/25 12:14:30;;;;;;;1.08;0.38;;;;;;;-147.53;100.00;57128.34;10064290;29;20069;-80
2023/04/25 12:19:39;;;;;;;3.30;0.55;;;;;;;-147.53;100.00;57128.34;10046572;29;20049;-80
2023/04/25 12:24:44;;;;;;;;;;;;;;;-147.53;100.00;57128.34;10062492;29;20061;-81
2023/04/25 12:29:54;;;;;;;1.10;0.28;;;;;;;-147.53;100.00;57128.34;10066639;29;19935;-79
2023/04/25 12:34:56;;;;;;;;;;;;;;;-147.53;100.00;57128.34;10066646;29;20053;-81
2023/04/25 12:39:58;;;;;;;1.05;0.60;;;;;;;-147.53;100.00;57128.34;10064568;29;19924;-80
2023/04/25 12:45:00;;;;;;;1.00;0.45;;;;;;;-147.53;100.00;57128.34;10060901;29;20084;-81
2023/04/25 12:50:01;;;;;;;2.90;0.98;;;;;;;-147.53;100.00;57128.34;10064818;29;20077;-81
2023/04/25 12:55:03;;;;;;;0.65;0.40;;;;;;;-147.53;100.00;57128.34;10066467;29;20054;-80
2023/04/25 13:00:08;;;;;;;0.95;0.43;;;;;;;-147.53;100.00;57128.34;10041642;29;20094;-80
2023/04/25 13:05:11;;;;;;;0.28;0.28;;;;;;;-147.53;100.00;57128.34;10045805;29;20161;-78
2023/04/25 13:10:12;;;;;;;0.88;0.30;;;;;;;-147.53;100.00;57128.34;10054229;29;20052;-80
2023/04/25 13:15:15;;;;;;;2.92;1.02;;;;;;;-147.53;100.00;57128.34;10059809;29;20065;-79
2023/04/25 13:20:18;;;;;;;1.88;0.50;;;;;;;-147.53;100.00;57128.34;10057693;29;20048;-80
2023/04/25 13:25:21;;;;;;;2.17;0.98;;;;;;;-147.53;100.00;57128.34;10069536;29;20109;-80
2023/04/25 13:30:23;;;;;;;2.13;0.52;;;;;;;-147.53;100.00;57128.34;10049100;29;20059;-80
2023/04/25 13:35:25;;;;;;;4.60;0.45;;;;;;;-147.53;100.00;57128.34;10049030;29;20057;-81
2023/04/25 13:40:27;;;;;;;1.23;0.22;;;;;;;-147.53;100.00;57128.34;10033490;29;20057;-80
2023/04/25 13:45:29;;;;;;;6.63;0.52;;;;;;;-147.53;100.00;57128.34;10051606;29;20472;-81
2023/04/25 13:50:33;;;;;;;2.58;0.73;;;;;;;-147.53;100.00;57128.34;10052046;29;20140;-80
2023/04/25 13:55:38;;;;;;;2.72;0.73;;;;;;;-147.53;100.00;57128.34;10065622;29;20462;-80
2023/04/25 14:00:43;;;;;;;1.25;0.43;;;;;;;-147.53;100.00;57128.34;10065731;29;20050;-81
2023/04/25 14:05:44;;;;;;;2.78;0.57;;;;;;;-147.53;100.00;57128.34;10033225;29;20479;-80
2023/04/25 14:10:46;;;;;;;0.65;0.35;;;;;;;-147.53;100.00;57128.34;10021445;29;20757;-81
2023/04/25 14:15:47;;;;;;;0.30;0.30;;;;;;;-147.53;100.00;57128.34;10051558;29;20053;-82
2023/04/25 14:20:49;;;;;;;4.75;1.23;;;;;;;-147.53;100.00;57128.34;10063617;29;20592;-81
2023/04/25 14:25:51;;;;;;;9.82;0.60;;;;;;;-147.53;100.00;57128.34;10049041;29;20506;-81
2023/04/25 14:30:53;;;;;;;0.45;0.32;;;;;;;-147.53;100.00;57128.34;10032867;29;20503;-82
2023/04/25 14:35:54;;;;;;;4.05;0.30;;;;;;;-147.53;100.00;57128.34;10049535;29;20066;-82
2023/04/25 14:40:56;;;;;;;0.45;0.30;;;;;;;-147.53;100.00;57128.34;10057431;29;20057;-82
2023/04/25 14:45:58;;;;;;;1.83;0.43;;;;;;;-147.53;100.00;57128.34;10057941;29;20058;-81
2023/04/25 14:51:00;;;;;;;0.20;0.20;;;;;;;-147.53;100.00;57128.34;10037236;29;20068;-82
2023/04/25 14:56:02;;;;;;;0.20;0.20;;;;;;;-147.53;100.00;57128.34;10049640;29;20063;-81
2023/04/25 15:01:04;;;;;;;0.15;0.15;;;;;;;-147.53;100.00;57128.34;10053520;29;20129;-81
2023/04/25 15:06:06;;;;;;;1.15;0.43;;;;;;;-147.53;100.00;57128.34;10068539;29;20069;-81
2023/04/25 15:11:07;;;;;;;0.82;0.60;;;;;;;-147.53;100.00;57128.34;10061169;29;20454;-79
2023/04/25 15:16:11;;;;;;;1.50;0.50;;;;;;;-147.53;100.00;57128.34;10058874;29;20574;-81
2023/04/25 15:21:12;;;;;;;1.77;0.65;;;;;;;-147.53;100.00;57128.34;10041432;29;20119;-80
2023/04/25 15:26:14;;;;;;;1.58;0.68;;;;;;;-147.53;100.00;57128.34;10069779;29;20117;-83
2023/04/25 15:31:16;;;;;;;1.13;0.20;;;;;;;-147.53;100.00;57128.34;10072490;29;20124;-81
2023/04/25 15:36:18;;;;;;;0.32;0.32;;;;;;;-147.53;100.00;57128.34;10083708;29;20053;-81
2023/04/25 15:41:20;;;;;;;1.17;0.30;;;;;;;-147.53;100.00;57128.34;10052970;29;20132;-81
2023/04/25 15:46:22;;;;;;;1.02;0.25;;;;;;;-147.53;100.00;57128.34;10056344;29;20053;-80
2023/04/25 15:51:25;;;;;;;0.30;0.30;;;;;;;-147.53;100.00;57128.34;10035692;29;20046;-82
2023/04/25 15:56:27;;;;;;;3.80;0.77;;;;;;;-147.53;100.00;57128.34;10032720;29;20053;-83
2023/04/25 16:01:29;;;;;;;1.63;0.45;;;;;;;-147.53;100.00;57128.34;10032867;29;20129;-82
2023/04/25 16:06:31;;;;;;;1.77;0.60;;;;;;;-147.53;100.00;57128.34;10064138;29;20065;-80
2023/04/25 16:11:33;;;;;;;4.28;0.70;;;;;;;-147.53;100.00;57128.34;10053141;29;20053;-81
2023/04/25 16:16:35;;;;;;;2.03;0.73;;;;;;;-147.53;100.00;57128.34;10053856;29;20053;-81
2023/04/25 16:21:37;;;;;;;0.70;0.32;;;;;;;-147.53;100.00;57128.34;10053459;29;20101;-80
2023/04/25 16:26:42;;;;;;;2.65;0.98;;;;;;;-147.53;100.00;57128.34;10042767;29;20058;-81
2023/04/25 16:31:46;;;;;;;0.25;0.20;;;;;;;-147.53;100.00;57128.34;10058455;29;20550;-81
2023/04/25 16:36:48;;;;;;;1.02;0.40;;;;;;;-147.53;100.00;57128.34;10058368;29;20144;-80
2023/04/25 16:41:50;;;;;;;1.08;0.50;;;;;;;-147.53;100.00;57128.34;10055983;29;20053;-80
2023/04/25 16:46:52;;;;;;;0.47;0.47;;;;;;;-147.53;100.00;57128.34;10056243;29;20140;-81
2023/04/25 16:51:54;;;;;;;0.90;0.60;;;;;;;-147.53;100.00;57128.34;10039990;29;20388;-80
2023/04/25 16:56:57;;;;;;;4.88;0.50;;;;;;;-147.53;100.00;57128.34;10070116;29;20057;-80
2023/04/25 17:01:58;;;;;;;0.20;0.20;;;;;;;-147.53;100.00;57128.34;10049959;29;20053;-80
2023/04/25 17:07:00;;;;;;;0.50;0.40;;;;;;;-147.53;100.00;57128.34;10041689;29;20058;-80
2023/04/25 17:12:02;;;;;;;2.08;0.32;;;;;;;-147.53;100.00;57128.34;10059951;29;20144;-81
2023/04/25 17:17:04;;;;;;;4.47;1.02;;;;;;;-147.53;100.00;57128.34;10059044;29;20113;-80
2023/04/25 17:22:06;;;;;;;0.32;0.32;;;;;;;-147.53;100.00;57128.34;10055694;29;20094;-80
2023/04/25 17:27:07;;;;;;;4.90;0.45;;;;;;;-147.53;100.00;57128.34;10054902;29;20057;-80
2023/04/25 17:32:09;;;;;;;2.65;0.63;;;;;;;-147.53;100.00;57128.34;10069209;29;20053;-80
2023/04/25 17:37:14;;;;;;;2.40;0.73;;;;;;;-147.53;100.00;57128.34;10068766;29;20168;-80
2023/04/25 17:42:16;;;;;;;3.70;0.57;;;;;;;-147.53;100.00;57128.34;10052092;29;20065;-80
2023/04/25 17:47:18;;;;;;;0.73;0.63;;;;;;;-147.53;100.00;57128.34;10053360;29;20081;-81
2023/04/25 17:52:19;;;;;;;0.38;0.35;;;;;;;-147.53;100.00;57128.34;10049412;29;20061;-80
2023/04/25 17:57:23;;;;;;;2.72;0.30;;;;;;;-147.53;100.00;57128.34;10037955;29;20718;-80
2023/04/25 18:02:25;;;;;;;2.58;0.82;;;;;;;-147.53;100.00;57128.34;10046633;29;20057;-80
2023/04/25 18:07:27;;;;;;;3.65;1.48;;;;;;;-147.53;100.00;57128.34;10056752;29;20049;-81
2023/04/25 18:12:29;;;;;;;4.25;0.70;;;;;;;-147.53;100.00;57128.34;10029443;29;20105;-81
2023/04/25 18:17:32;;;;;;;1.08;0.70;;;;;;;-147.53;100.00;57128.34;10048188;29;20148;-82
2023/04/25 18:22:36;;;;;;;0.00;0.00;;;;;;;-147.53;100.00;57128.34;10031579;29;20105;-81
2023/04/25 18:27:38;;;;;;;0.10;0.10;;;;;;;-147.53;100.00;57128.34;10048317;29;20053;-83
2023/04/25 18:32:40;;;;;;;3.13;0.30;;;;;;;-147.53;100.00;57128.34;10046933;29;20136;-81
2023/04/25 18:37:43;;;;;;;0.22;0.22;;;;;;;-147.53;100.00;57128.34;10047012;29;20052;-81
2023/04/25 18:42:44;;;;;;;0.95;0.40;;;;;;;-147.53;100.00;57128.34;10030435;29;20073;-83
2023/04/25 18:47:46;;;;;;;0.30;0.30;;;;;;;-147.53;100.00;57128.34;10061238;29;20061;-81
2023/04/25 18:52:48;;;;;;;1.60;0.52;;;;;;;-147.53;100.00;57128.34;10043522;29;20088;-81
2023/04/25 18:57:50;;;;;;;3.35;1.02;;;;;;;-147.53;100.00;57128.34;10056774;29;20081;-81
2023/04/25 19:02:54;;;;;;;0.68;0.38;;;;;;;-147.53;100.00;57128.34;10044237;29;20067;-81
2023/04/25 19:07:57;;;;;;;5.85;1.00;;;;;;;-147.53;100.00;57128.34;10049481;29;20086;-81
2023/04/25 19:12:59;;;;;;;1.00;0.52;;;;;;;-147.53;100.00;57128.34;10049424;29;20058;-81
2023/04/25 19:18:01;;;;;;;1.77;0.32;;;;;;;-147.53;100.00;57128.34;10050350;29;20144;-81
2023/04/25 19:23:04;;;;;;;0.63;0.52;;;;;;;-147.53;100.00;57128.34;10049961;29;20250;-81
2023/04/25 19:28:07;;;;;;;0.45;0.30;;;;;;;-147.53;100.00;57128.34;10054290;29;20484;-82
2023/04/25 19:33:09;;;;;;;1.40;0.35;;;;;;;-147.53;100.00;57128.34;10028470;29;20060;-81
2023/04/25 19:38:11;;;;;;;0.60;0.32;;;;;;;-147.53;100.00;57128.34;10034230;29;20049;-81
2023/04/25 19:43:12;;;;;;;0.10;0.10;;;;;;;-147.53;100.00;57128.34;10029800;29;20082;-81
2023/04/25 19:48:14;;;;;;;0.30;0.30;;;;;;;-147.53;100.00;57128.34;10031564;29;20518;-80
2023/04/25 19:53:15;;;;;;;1.52;0.68;;;;;;;-147.53;100.00;57128.34;10046561;29;20049;-81
2023/04/25 19:58:17;;;;;;;0.98;0.85;;;;;;;-147.53;100.00;57128.34;10050931;29;20549;-81
2023/04/25 20:03:19;;;;;;;0.52;0.43;;;;;;;-147.53;100.00;57128.34;10034613;29;20806;-81
2023/04/25 20:08:20;;;;;;;0.75;0.30;;;;;;;-147.53;100.00;57128.34;10045784;29;20049;-81
2023/04/25 20:13:24;;;;;;;1.55;0.70;;;;;;;-147.53;100.00;57128.34;10051656;29;20057;-81
2023/04/25 20:18:26;;;;;;;0.30;0.30;;;;;;;-147.53;100.00;57128.34;10053609;29;20087;-81
2023/04/25 20:23:28;;;;;;;0.40;0.40;;;;;;;-147.53;100.00;57128.34;10037703;29;20049;-81
2023/04/25 20:28:29;;;;;;;0.90;0.57;;;;;;;-147.53;100.00;57128.34;10058523;29;20483;-81
2023/04/25 20:33:31;;;;;;;2.08;1.23;;;;;;;-147.53;100.00;57128.34;10064985;29;20069;-81
2023/04/25 20:38:32;;;;;;;0.68;0.57;;;;;;;-147.53;100.00;57128.34;10066081;29;20529;-81
2023/04/25 20:43:37;;;;;;;0.50;0.50;;;;;;;-147.53;100.00;57128.34;10056239;29;20106;-80
2023/04/25 20:48:38;;;;;;;2.63;0.82;;;;;;;-147.53;100.00;57128.34;10055388;29;20101;-80
2023/04/25 20:53:40;;;;;;;2.13;0.57;;;;;;;-147.53;100.00;57128.34;10055204;29;20125;-80
2023/04/25 20:58:42;;;;;;;2.78;1.20;;;;;;;-147.53;100.00;57128.34;10055232;29;20133;-81
2023/04/25 21:03:47;;;;;;;0.63;0.63;;;;;;;-147.53;100.00;57128.34;10055105;29;20098;-80
2023/04/25 21:08:48;;;;;;;2.90;1.33;;;;;;;-147.53;100.00;57128.34;10054203;29;20053;-81
2023/04/25 21:13:51;;;;;;;1.00;0.52;;;;;;;-147.53;100.00;57128.34;10052979;29;20073;-81
2023/04/25 21:18:52;;;;;;;0.98;0.73;;;;;;;-147.53;100.00;57128.34;10054154;29;20117;-81
2023/04/25 21:23:56;;;;;;;2.15;1.10;;;;;;;-147.53;100.00;57128.34;10055174;29;20152;-80
2023/04/25 21:28:57;;;;;;;0.47;0.47;;;;;;;-147.53;100.00;57128.34;10038488;29;20053;-81
2023/04/25 21:33:59;;;;;;;0.63;0.43;;;;;;;-147.53;100.00;57128.34;10053874;29;20054;-80
2023/04/25 21:39:01;;;;;;;0.60;0.60;;;;;;;-147.53;100.00;57128.34;10053761;29;20543;-80
2023/04/25 21:44:03;;;;;;;1.08;0.98;;;;;;;-147.53;100.00;57128.34;10053560;29;20058;-80
2023/04/25 21:49:04;;;;;;;0.90;0.50;;;;;;;-147.53;100.00;57128.34;10054093;29;20430;-80
2023/04/25 21:54:06;;;;;;;2.17;0.80;;;;;;;-147.53;100.00;57128.34;10053207;29;20053;-80
2023/04/25 21:59:09;;;;;;;1.00;0.60;;;;;;;-147.53;100.00;57128.34;10052596;29;20556;-80
2023/04/25 22:04:10;;;;;;;0.60;0.50;;;;;;;-147.53;100.00;57128.34;10052277;29;20113;-81
2023/04/25 22:09:13;;;;;;;1.75;0.57;;;;;;;-147.53;100.00;57128.34;10053457;29;20566;-80
2023/04/25 22:14:15;;;;;;;1.85;0.60;;;;;;;-147.53;100.00;57128.34;10052174;29;20054;-81
2023/04/25 22:19:17;;;;;;;0.63;0.43;;;;;;;-147.53;100.00;57128.34;10045045;29;20430;-81
2023/04/25 22:24:20;;;;;;;0.30;0.28;;;;;;;-147.53;100.00;57128.34;10035959;29;20441;-81
2023/04/25 22:29:22;;;;;;;0.30;0.30;;;;;;;-147.53;100.00;57128.34;10053981;29;20431;-79
2023/04/25 22:34:24;;;;;;;0.30;0.30;;;;;;;-147.53;100.00;57128.34;10053050;29;20133;-80
2023/04/25 22:39:25;;;;;;;0.98;0.57;;;;;;;-147.53;100.00;57128.34;10037095;29;20057;-80
2023/04/25 22:44:27;;;;;;;1.13;0.75;;;;;;;-147.53;100.00;57128.34;10052809;29;20140;-80
2023/04/25 22:49:29;;;;;;;0.73;0.55;;;;;;;-147.53;100.00;57128.34;10067500;29;20526;-80
2023/04/25 22:54:30;;;;;;;0.95;0.20;;;;;;;-147.53;100.00;57128.34;10053248;29;20060;-80
2023/04/25 22:59:35;;;;;;;0.38;0.32;;;;;;;-147.53;100.00;57128.34;10071940;29;20065;-80
2023/04/25 23:04:36;;;;;;;0.68;0.68;;;;;;;-147.53;100.00;57128.34;10064185;29;20152;-81
2023/04/25 23:09:39;;;;;;;0.45;0.38;;;;;;;-147.53;100.00;57128.34;10067674;29;20045;-80
2023/04/25 23:14:41;;;;;;;0.20;0.20;;;;;;;-147.53;100.00;57128.34;10038524;29;20052;-80
2023/04/25 23:19:44;;;;;;;3.35;0.90;;;;;;;-147.53;100.00;57128.34;10051263;29;20690;-79